Time;durP1;ratioP1;P1;durP2;ratioP2;P2;SDS_P1;SDS_P2;PMS_P1;PMS_P2;Temp;Humidity;BMP_temperature;BMP_pressure;BME280_temperature;BME280_humidity;BME280_pressure;Samples;Min_cycle;Max_cycle;Signal;HPM_P1;HPM_P2
2022/04/28 00:01:01;;;;;;;17.20;11.10;;;;;;;8.84;70.27;99088.36;105941;1280;137933;-81
2022/04/28 00:03:27;;;;;;;18.40;10.40;;;;;;;8.83;70.50;99089.36;105813;1279;22594;-81
2022/04/28 00:06:11;;;;;;;21.30;11.10;;;;;;;8.80;70.64;99087.20;105740;1278;138115;-81
2022/04/28 00:08:37;;;;;;;19.50;11.10;;;;;;;8.79;70.64;99085.90;105762;1277;24081;-81
2022/04/28 00:11:05;;;;;;;17.70;11.00;;;;;;;8.77;70.71;99084.05;105897;1278;23072;-81
2022/04/28 00:13:32;;;;;;;19.70;10.70;;;;;;;8.75;70.90;99084.34;105840;1278;138160;-82
2022/04/28 00:16:01;;;;;;;18.20;10.10;;;;;;;8.74;71.00;99085.61;106022;1277;22841;-81
2022/04/28 00:18:28;;;;;;;16.30;10.20;;;;;;;8.72;70.90;99085.84;105942;1280;137762;-81
2022/04/28 00:20:54;;;;;;;19.30;9.90;;;;;;;8.71;70.70;99083.08;105903;1280;23932;-81
2022/04/28 00:23:23;;;;;;;18.50;10.80;;;;;;;8.73;70.50;99082.67;105677;1280;138201;-81
2022/04/28 00:25:54;;;;;;;16.10;9.40;;;;;;;8.76;70.59;99086.60;105883;1278;23933;-81
2022/04/28 00:28:35;;;;;;;14.90;9.50;;;;;;;8.76;70.57;99082.38;106008;1277;22630;-80
2022/04/28 00:31:16;;;;;;;18.40;10.10;;;;;;;8.76;70.43;99085.85;105771;1280;137977;-81
2022/04/28 00:33:48;;;;;;;16.60;10.20;;;;;;;8.76;70.62;99086.77;106065;1277;24288;-81
2022/04/28 00:36:18;;;;;;;15.20;10.00;;;;;;;8.76;70.74;99084.43;105727;1278;138188;-81
2022/04/28 00:38:44;;;;;;;18.60;10.30;;;;;;;8.74;70.64;99086.02;105756;1280;22548;-81
2022/04/28 00:41:12;;;;;;;15.40;9.30;;;;;;;8.72;70.84;99086.08;105954;1280;25467;-81
2022/04/28 00:43:50;;;;;;;16.80;9.20;;;;;;;8.70;70.37;99087.85;105569;1281;137716;-81
2022/04/28 00:46:18;;;;;;;15.50;9.50;;;;;;;8.70;70.63;99084.84;105870;1277;22573;-81
2022/04/28 00:51:28;;;;;;;17.80;9.40;;;;;;;8.68;70.76;99085.85;105912;1277;22547;-81
2022/04/28 00:53:57;;;;;;;15.80;9.60;;;;;;;8.65;70.86;99085.70;105898;1277;137764;-81
2022/04/28 00:56:30;;;;;;;14.70;9.30;;;;;;;8.64;71.01;99083.95;105840;1280;22559;-81
2022/04/28 00:59:02;;;;;;;17.20;9.30;;;;;;;8.62;70.89;99091.93;105909;1280;22703;-81
2022/04/28 01:01:30;;;;;;;15.50;9.10;;;;;;;8.60;71.07;99091.04;105764;1280;137689;-81
2022/04/28 01:03:57;;;;;;;14.70;9.20;;;;;;;8.56;71.22;99090.09;105680;1280;25361;-81
2022/04/28 01:06:24;;;;;;;14.60;8.40;;;;;;;8.53;71.29;99087.64;105765;1278;137828;-82
2022/04/28 01:09:05;;;;;;;15.60;9.80;;;;;;;8.49;71.44;99086.86;105874;1278;24294;-81
2022/04/28 01:11:33;;;;;;;13.80;8.60;;;;;;;8.46;71.32;99084.20;105879;1278;138452;-83
2022/04/28 01:14:05;;;;;;;14.50;9.10;;;;;;;8.45;71.30;99083.42;106091;1277;22884;-81
2022/04/28 01:16:40;;;;;;;14.50;9.40;;;;;;;8.44;71.45;99087.59;105954;1277;22570;-81
2022/04/28 01:19:07;;;;;;;18.90;9.40;;;;;;;8.41;71.39;99091.06;105715;1277;137734;-82
2022/04/28 01:21:33;;;;;;;15.80;9.00;;;;;;;8.39;71.78;99095.65;106066;1277;22691;-81
2022/04/28 01:24:09;;;;;;;15.40;8.90;;;;;;;8.36;71.70;99094.07;105943;1278;138257;-81
2022/04/28 01:26:36;;;;;;;16.20;10.80;;;;;;;8.31;71.83;99093.33;106155;1277;22566;-81
2022/04/28 01:29:04;;;;;;;15.90;8.80;;;;;;;8.26;71.87;99092.95;106119;1277;22700;-82
2022/04/28 01:31:30;;;;;;;16.40;9.00;;;;;;;8.20;71.86;99090.88;106086;1277;138367;-81
2022/04/28 01:34:03;;;;;;;14.30;8.90;;;;;;;8.17;71.97;99089.30;106014;1277;22684;-82
2022/04/28 01:36:32;;;;;;;16.20;9.20;;;;;;;8.14;72.21;99090.06;105887;1277;137639;-81
2022/04/28 01:38:58;;;;;;;13.40;8.20;;;;;;;8.10;72.15;99091.28;105821;1280;23431;-81
2022/04/28 01:41:24;;;;;;;14.10;8.40;;;;;;;8.04;72.18;99089.71;105571;1280;137886;-82
2022/04/28 01:44:06;;;;;;;14.60;9.10;;;;;;;7.97;72.32;99090.23;105673;1280;22836;-82
2022/04/28 01:46:37;;;;;;;28.80;9.10;;;;;;;7.91;72.36;99089.78;105680;1280;26589;-83
2022/04/28 01:49:30;;;;;;;14.60;7.70;;;;;;;7.84;72.34;99098.02;105496;1277;137939;-82
2022/04/28 01:55:11;;;;;;;14.10;8.00;;;;;;;7.73;72.26;99097.49;105929;1277;137914;-83
2022/04/28 01:58:03;;;;;;;13.70;7.70;;;;;;;7.70;72.86;99096.46;106159;1277;23929;-81
2022/04/28 02:00:44;;;;;;;15.40;8.80;;;;;;;7.66;72.59;99100.72;106009;1277;137623;-81
2022/04/28 02:03:11;;;;;;;14.20;8.30;;;;;;;7.60;72.60;99098.42;105878;1277;23964;-81
2022/04/28 02:05:38;;;;;;;13.10;7.90;;;;;;;7.55;72.52;99098.43;105939;1278;137701;-81
2022/04/28 02:08:06;;;;;;;17.40;8.70;;;;;;;7.50;72.95;99099.81;105774;1278;22869;-81
2022/04/28 02:10:34;;;;;;;14.30;8.60;;;;;;;7.45;72.78;99103.57;105760;1277;25344;-81
2022/04/28 02:13:04;;;;;;;13.70;8.70;;;;;;;7.40;73.15;99098.51;105955;1277;138804;-82
2022/04/28 02:15:33;;;;;;;13.30;8.30;;;;;;;7.38;73.15;99097.06;106199;1277;22566;-82
2022/04/28 02:18:25;;;;;;;16.10;8.80;;;;;;;7.36;73.06;99096.64;106233;1277;138374;-81
2022/04/28 02:20:52;;;;;;;13.20;8.80;;;;;;;7.32;73.02;99097.40;106052;1277;22644;-81
2022/04/28 02:23:19;;;;;;;14.60;8.60;;;;;;;7.28;73.20;99097.77;105801;1280;137735;-80
2022/04/28 02:25:46;;;;;;;16.10;9.10;;;;;;;7.23;73.14;99100.80;106122;1280;24225;-83
2022/04/28 02:28:13;;;;;;;17.30;9.60;;;;;;;7.17;73.00;99096.98;106074;1277;25494;-81
2022/04/28 02:30:40;;;;;;;13.90;8.50;;;;;;;7.14;73.36;99101.09;105872;1277;137238;-83
2022/04/28 02:33:09;;;;;;;14.00;8.90;;;;;;;7.12;73.56;99099.76;106121;1277;22676;-81
2022/04/28 02:35:49;;;;;;;15.10;7.50;;;;;;;7.10;73.43;99099.80;106236;1277;138123;-82
2022/04/28 02:38:16;;;;;;;14.30;7.50;;;;;;;7.07;73.50;99102.20;106113;1277;22555;-82
2022/04/28 02:40:45;;;;;;;13.50;8.20;;;;;;;7.04;73.56;99102.00;105859;1278;30650;-81
2022/04/28 02:43:13;;;;;;;13.60;8.10;;;;;;;7.01;73.40;99104.86;105699;1280;137596;-82
2022/04/28 02:45:39;;;;;;;16.60;9.50;;;;;;;6.99;73.72;99104.91;105983;1280;25255;-81
2022/04/28 02:48:06;;;;;;;18.50;8.80;;;;;;;6.95;73.62;99100.35;105992;1277;137597;-81
2022/04/28 02:50:32;;;;;;;15.10;10.00;;;;;;;6.91;73.78;99105.71;105875;1277;22675;-81
2022/04/28 02:53:02;;;;;;;14.10;8.60;;;;;;;6.89;73.58;99104.63;106065;1277;22544;-81
2022/04/28 02:55:40;;;;;;;15.20;8.20;;;;;;;6.88;73.79;99107.41;105963;1277;137930;-81
2022/04/28 02:58:10;;;;;;;16.80;8.60;;;;;;;6.85;73.67;99107.25;105860;1277;24085;-81
2022/04/28 03:00:39;;;;;;;15.80;8.70;;;;;;;6.82;73.82;99110.33;106263;1278;137651;-82
2022/04/28 03:03:07;;;;;;;12.10;8.10;;;;;;;6.79;73.93;99111.29;105946;1278;24415;-82
2022/04/28 03:10:46;;;;;;;14.60;8.60;;;;;;;6.76;74.16;99112.10;105648;1278;137843;-82
2022/04/28 03:11:03;;;;;;;14.70;9.90;;;;;;;6.66;74.23;99116.06;105890;1277;22564;-81
2022/04/28 03:13:31;;;;;;;13.70;8.00;;;;;;;6.61;74.36;99120.21;105795;1277;138634;-81
2022/04/28 03:16:06;;;;;;;15.30;9.10;;;;;;;6.58;74.39;99121.29;105875;1278;22573;-82
2022/04/28 03:18:46;;;;;;;14.20;9.20;;;;;;;6.55;74.47;99120.11;105943;1277;137893;-81
2022/04/28 03:21:13;;;;;;;13.20;8.70;;;;;;;6.52;74.47;99120.27;106039;1277;22577;-82
2022/04/28 03:23:40;;;;;;;12.10;7.60;;;;;;;6.49;74.36;99125.58;105811;1277;137833;-81
2022/04/28 03:26:09;;;;;;;14.80;8.70;;;;;;;6.46;74.80;99125.20;105959;1278;22544;-82
2022/04/28 03:28:38;;;;;;;14.90;9.00;;;;;;;6.41;74.77;99127.10;106022;1277;22574;-82
2022/04/28 03:31:06;;;;;;;17.10;10.40;;;;;;;6.37;75.01;99127.83;106088;1277;138606;-82
2022/04/28 03:33:46;;;;;;;14.00;9.00;;;;;;;6.37;74.97;99124.75;106104;1277;22560;-82
2022/04/28 03:38:55;;;;;;;16.30;9.30;;;;;;;6.43;75.31;99123.23;106016;1277;22537;-82
2022/04/28 03:41:22;;;;;;;14.70;8.90;;;;;;;6.46;75.08;99124.96;105726;1280;137743;-83
2022/04/28 03:43:48;;;;;;;15.30;9.90;;;;;;;6.49;75.14;99124.34;105794;1280;23853;-82
2022/04/28 03:46:17;;;;;;;20.00;9.60;;;;;;;6.48;75.20;99124.92;106013;1280;22576;-82
2022/04/28 03:48:44;;;;;;;23.30;9.60;;;;;;;6.46;75.00;99119.09;105834;1280;137782;-82
2022/04/28 03:51:14;;;;;;;18.10;9.80;;;;;;;6.44;75.14;99119.11;106003;1277;24298;-82
2022/04/28 03:53:40;;;;;;;15.50;9.30;;;;;;;6.43;75.36;99119.77;105763;1277;138301;-82
2022/04/28 03:56:10;;;;;;;18.50;9.80;;;;;;;6.46;75.23;99120.33;106182;1277;22639;-82
2022/04/28 03:58:36;;;;;;;19.50;9.90;;;;;;;6.50;75.40;99124.56;105973;1277;23581;-82
2022/04/28 04:01:03;;;;;;;21.00;10.00;;;;;;;6.54;75.38;99131.21;105998;1277;137706;-82
2022/04/28 04:03:39;;;;;;;21.40;9.90;;;;;;;6.57;75.17;99137.52;105979;1280;24922;-82
2022/04/28 04:06:06;;;;;;;13.30;8.50;;;;;;;6.56;75.01;99141.73;105691;1278;137516;-82
2022/04/28 04:08:32;;;;;;;21.50;10.00;;;;;;;6.54;74.85;99141.47;105791;1278;22712;-82
2022/04/28 04:11:05;;;;;;;30.90;10.70;;;;;;;6.53;75.10;99146.91;106032;1277;22772;-82
2022/04/28 04:13:33;;;;;;;17.30;10.00;;;;;;;6.55;75.09;99155.22;105642;1277;138462;-82
2022/04/28 04:15:59;;;;;;;23.50;9.50;;;;;;;6.59;75.17;99150.52;105858;1278;22636;-82
2022/04/28 04:18:51;;;;;;;21.90;8.90;;;;;;;6.63;75.09;99154.23;105962;1277;138027;-82
2022/04/28 04:21:24;;;;;;;16.30;8.70;;;;;;;6.64;74.99;99156.37;105854;1279;24401;-83
2022/04/28 04:23:51;;;;;;;17.70;10.10;;;;;;;6.67;74.95;99159.84;105640;1280;137680;-82
2022/04/28 04:26:26;;;;;;;15.50;9.40;;;;;;;6.69;74.76;99166.84;105955;1280;25424;-82
2022/04/28 04:28:52;;;;;;;14.90;8.40;;;;;;;6.70;74.72;99169.88;105801;1280;25285;-82
2022/04/28 04:34:04;;;;;;;21.80;9.70;;;;;;;6.78;74.42;99174.78;106018;1277;24306;-81
2022/04/28 04:36:30;;;;;;;17.70;9.70;;;;;;;6.83;74.16;99174.64;106008;1277;138404;-82
2022/04/28 04:38:58;;;;;;;17.70;9.40;;;;;;;6.89;74.03;99176.23;106033;1277;22683;-82
2022/04/28 04:41:25;;;;;;;15.30;8.70;;;;;;;6.95;74.02;99179.63;105860;1280;137887;-82
2022/04/28 04:43:51;;;;;;;15.40;8.90;;;;;;;7.00;73.93;99181.48;105845;1280;26594;-81
2022/04/28 04:46:18;;;;;;;16.20;9.80;;;;;;;7.02;73.74;99181.48;105818;1280;23185;-82
2022/04/28 04:48:58;;;;;;;15.80;9.10;;;;;;;7.05;74.08;99183.66;105819;1280;138614;-82
2022/04/28 04:51:36;;;;;;;16.10;10.00;;;;;;;7.06;73.84;99186.33;106103;1277;22607;-82
2022/04/28 04:54:11;;;;;;;19.20;9.20;;;;;;;7.09;73.49;99188.83;105992;1277;138458;-82
2022/04/28 04:56:38;;;;;;;19.50;9.10;;;;;;;7.11;73.49;99183.38;106213;1277;23448;-82
2022/04/28 04:59:06;;;;;;;21.90;10.10;;;;;;;7.15;73.49;99179.86;105869;1277;25349;-82
2022/04/28 05:01:35;;;;;;;16.60;9.20;;;;;;;7.17;73.44;99178.77;105771;1280;137969;-81
2022/04/28 05:04:15;;;;;;;18.90;9.00;;;;;;;7.20;73.38;99180.27;105959;1280;22557;-81
2022/04/28 05:07:09;;;;;;;15.90;9.00;;;;;;;7.21;73.28;99178.66;105791;1280;138086;-83
2022/04/28 05:09:40;;;;;;;19.80;10.20;;;;;;;7.19;73.45;99176.98;105967;1280;23208;-82
2022/04/28 05:12:10;;;;;;;15.60;9.20;;;;;;;7.18;73.36;99181.77;105921;1280;138548;-82
2022/04/28 05:14:49;;;;;;;17.10;9.30;;;;;;;7.21;73.34;99183.40;105951;1280;22555;-81
2022/04/28 05:17:16;;;;;;;15.70;9.60;;;;;;;7.22;73.36;99186.75;106187;1276;25332;-82
2022/04/28 05:20:00;;;;;;;18.60;9.80;;;;;;;7.24;73.53;99185.61;106096;1277;137381;-82
2022/04/28 05:22:40;;;;;;;20.00;10.60;;;;;;;7.26;74.35;99186.16;106284;1278;22560;-82
2022/04/28 05:25:12;;;;;;;19.70;9.80;;;;;;;7.27;74.25;99193.17;105923;1280;138093;-82
2022/04/28 05:28:07;;;;;;;14.30;9.20;;;;;;;7.30;74.08;99193.31;105459;1283;24277;-81
2022/04/28 05:30:49;;;;;;;15.80;9.00;;;;;;;7.35;73.83;99195.98;105887;1279;138307;-82
2022/04/28 05:33:29;;;;;;;13.80;8.40;;;;;;;7.42;74.27;99199.66;106233;1277;22701;-81
2022/04/28 05:36:09;;;;;;;13.80;8.70;;;;;;;7.52;74.49;99199.84;106070;1277;138146;-83
2022/04/28 05:38:40;;;;;;;14.90;8.50;;;;;;;7.60;74.28;99203.85;106226;1277;23071;-81
2022/04/28 05:41:07;;;;;;;15.60;9.30;;;;;;;7.68;73.94;99204.86;106127;1277;24301;-81
2022/04/28 05:46:17;;;;;;;16.70;9.70;;;;;;;7.88;73.56;99208.31;105977;1279;24245;-82
2022/04/28 05:48:43;;;;;;;13.80;8.70;;;;;;;7.99;72.89;99206.10;106037;1280;137780;-82
2022/04/28 05:51:12;;;;;;;13.60;8.10;;;;;;;8.10;72.52;99208.60;105801;1280;22705;-82
2022/04/28 05:53:39;;;;;;;16.90;9.00;;;;;;;8.23;72.16;99206.69;105771;1277;137735;-83
2022/04/28 05:56:06;;;;;;;13.90;7.80;;;;;;;8.34;72.15;99215.08;105937;1280;22604;-82
2022/04/28 05:58:57;;;;;;;13.50;8.90;;;;;;;8.47;71.77;99212.78;105962;1279;25386;-82
2022/04/28 06:01:38;;;;;;;17.10;9.10;;;;;;;8.59;71.28;99211.83;105981;1280;137781;-82
2022/04/28 06:04:06;;;;;;;14.90;8.90;;;;;;;8.70;70.68;99207.02;105928;1280;22584;-82
2022/04/28 06:06:33;;;;;;;14.30;9.10;;;;;;;8.81;70.60;99208.71;105848;1280;137468;-82
2022/04/28 06:08:59;;;;;;;13.90;8.60;;;;;;;8.92;70.20;99208.54;105964;1280;24305;-82
2022/04/28 06:11:26;;;;;;;15.30;9.50;;;;;;;9.02;69.95;99207.07;105835;1280;24429;-82
2022/04/28 06:13:52;;;;;;;13.20;9.00;;;;;;;9.13;69.76;99211.56;105710;1277;137465;-82
2022/04/28 06:16:33;;;;;;;14.60;8.80;;;;;;;9.24;69.33;99212.55;106048;1274;24341;-83
2022/04/28 06:19:17;;;;;;;10.50;7.90;;;;;;;9.35;69.09;99210.95;105815;1277;137758;-81
2022/04/28 06:21:57;;;;;;;12.60;8.10;;;;;;;9.47;68.41;99212.55;106192;1277;23333;-81
2022/04/28 06:24:24;;;;;;;12.70;8.40;;;;;;;9.57;68.11;99212.85;105747;1280;137768;-81
2022/04/28 06:26:51;;;;;;;12.90;8.20;;;;;;;9.67;67.89;99215.29;105904;1280;22592;-82
2022/04/28 06:29:33;;;;;;;14.30;7.80;;;;;;;9.78;68.03;99211.73;106795;1279;25500;-82
2022/04/28 06:32:01;;;;;;;16.10;8.60;;;;;;;9.91;67.50;99213.98;106509;1279;138358;-82
2022/04/28 06:34:42;;;;;;;11.90;6.90;;;;;;;10.08;66.85;99214.45;106424;1277;22779;-82
2022/04/28 06:37:10;;;;;;;13.80;8.80;;;;;;;10.22;66.65;99210.77;106594;1277;138098;-82
2022/04/28 06:39:37;;;;;;;13.10;9.00;;;;;;;10.36;66.97;99214.10;106788;1277;23905;-82
2022/04/28 06:42:04;;;;;;;11.60;7.70;;;;;;;10.48;67.32;99214.11;106284;1278;138119;-82
2022/04/28 06:45:09;;;;;;;12.50;8.80;;;;;;;10.62;66.89;99217.72;106189;1279;24212;-82
2022/04/28 06:47:49;;;;;;;13.10;9.10;;;;;;;10.73;66.24;99217.69;106416;1280;138930;-80
2022/04/28 06:50:29;;;;;;;15.30;9.30;;;;;;;10.85;66.33;99221.94;106303;1279;25281;-81
2022/04/28 06:53:10;;;;;;;17.20;8.90;;;;;;;10.94;65.79;99219.48;106397;1278;23250;-81
2022/04/28 06:55:36;;;;;;;12.60;9.10;;;;;;;11.03;66.03;99213.63;106441;1280;137983;-81
2022/04/28 06:58:03;;;;;;;11.80;7.90;;;;;;;11.11;65.55;99217.02;106423;1277;22721;-81
2022/04/28 07:00:33;;;;;;;8.80;6.70;;;;;;;11.20;64.28;99212.30;106794;1277;137694;-81
2022/04/28 07:03:01;;;;;;;14.30;7.90;;;;;;;11.29;63.84;99212.87;106431;1277;23146;-81
2022/04/28 07:05:29;;;;;;;13.70;7.50;;;;;;;11.40;62.99;99219.16;106356;1280;22565;-81
2022/04/28 07:07:57;;;;;;;7.90;5.90;;;;;;;11.50;62.67;99219.36;106343;1279;137497;-81
2022/04/28 07:10:29;;;;;;;8.40;5.30;;;;;;;11.58;60.46;99215.02;106371;1280;22547;-82
2022/04/28 07:12:56;;;;;;;7.30;5.10;;;;;;;11.67;60.14;99216.26;106282;1279;137960;-81
2022/04/28 07:15:38;;;;;;;7.10;4.10;;;;;;;11.77;60.04;99217.06;106601;1277;25051;-81
2022/04/28 07:18:18;;;;;;;7.70;4.60;;;;;;;11.88;59.45;99220.96;106366;1277;138369;-81
2022/04/28 07:20:48;;;;;;;6.90;5.20;;;;;;;11.99;58.59;99223.77;106531;1277;22853;-81
2022/04/28 07:23:15;;;;;;;9.20;4.90;;;;;;;12.09;57.78;99220.45;106293;1277;24403;-81
2022/04/28 07:25:42;;;;;;;6.60;4.50;;;;;;;12.18;56.96;99224.54;105711;1280;137868;-81
2022/04/28 07:28:08;;;;;;;7.80;4.90;;;;;;;12.27;56.88;99225.97;105971;1280;25539;-81
2022/04/28 07:30:48;;;;;;;9.50;4.70;;;;;;;12.35;56.63;99221.95;105992;1280;137832;-82
2022/04/28 07:33:34;;;;;;;6.40;4.10;;;;;;;12.46;55.93;99226.39;105940;1277;24214;-82
2022/04/28 07:36:21;;;;;;;4.50;3.60;;;;;;;12.56;55.03;99229.19;105743;1277;137861;-82
2022/04/28 07:39:02;;;;;;;5.70;3.90;;;;;;;12.67;55.20;99227.30;106172;1277;24304;-82
2022/04/28 07:41:36;;;;;;;6.20;4.30;;;;;;;12.78;55.12;99231.25;106119;1277;22541;-81
2022/04/28 07:44:03;;;;;;;6.20;3.90;;;;;;;12.88;55.12;99229.18;106013;1277;137396;-81
2022/04/28 07:46:29;;;;;;;7.50;4.80;;;;;;;13.00;53.59;99231.44;105772;1280;24292;-80
2022/04/28 07:48:55;;;;;;;7.40;5.00;;;;;;;13.06;52.87;99230.70;105818;1280;137546;-80
2022/04/28 07:51:22;;;;;;;7.00;5.00;;;;;;;13.12;52.71;99230.65;106008;1280;22608;-82
2022/04/28 07:53:48;;;;;;;7.30;5.00;;;;;;;13.18;53.47;99228.38;106087;1280;137679;-81
2022/04/28 07:56:14;;;;;;;5.50;4.50;;;;;;;13.35;53.07;99234.90;105978;1277;22971;-82
2022/04/28 07:58:43;;;;;;;6.20;5.20;;;;;;;13.51;52.21;99236.30;106283;1277;23987;-81
2022/04/28 08:01:24;;;;;;;7.20;4.50;;;;;;;13.66;51.75;99240.35;106113;1277;138012;-80
2022/04/28 08:03:51;;;;;;;7.20;4.80;;;;;;;13.80;51.30;99238.64;106118;1277;25502;-82
2022/04/28 08:06:17;;;;;;;5.60;4.60;;;;;;;13.92;51.13;99232.45;105776;1277;569156;-84
2022/04/28 08:08:43;;;;;;;7.10;5.10;;;;;;;14.05;51.05;99236.88;106194;1280;24440;-81
2022/04/28 08:11:11;;;;;;;7.00;5.20;;;;;;;14.17;49.48;99235.86;106545;1278;22555;-84
2022/04/28 08:13:37;;;;;;;5.10;4.60;;;;;;;14.27;49.28;99241.11;106539;1280;137532;-83
2022/04/28 08:16:18;;;;;;;5.70;4.30;;;;;;;14.37;47.92;99241.43;106671;1280;22582;-83
2022/04/28 08:19:02;;;;;;;5.70;3.70;;;;;;;14.46;47.43;99243.38;106180;1277;137592;-81
2022/04/28 08:21:52;;;;;;;5.40;3.80;;;;;;;14.54;46.37;99240.09;105484;1280;22609;-80
2022/04/28 08:24:19;;;;;;;6.80;3.80;;;;;;;14.59;45.43;99238.11;105626;1280;137954;-82
2022/04/28 08:26:46;;;;;;;8.50;4.00;;;;;;;14.66;45.59;99239.25;105922;1277;25435;-82
2022/04/28 08:29:13;;;;;;;5.30;4.10;;;;;;;14.71;45.21;99239.21;105850;1280;25271;-82
2022/04/28 08:31:46;;;;;;;5.10;4.30;;;;;;;14.80;46.30;99238.35;106096;1277;138457;-82
2022/04/28 08:34:21;;;;;;;9.80;5.80;;;;;;;14.92;45.54;99237.80;106137;1277;25323;-83
2022/04/28 08:36:49;;;;;;;7.30;5.10;;;;;;;15.04;45.39;99239.98;105789;1280;137609;-83
2022/04/28 08:39:18;;;;;;;10.60;5.10;;;;;;;15.10;44.62;99239.52;105880;1280;25280;-81
2022/04/28 08:41:45;;;;;;;6.80;5.20;;;;;;;15.20;45.21;99237.33;105517;1280;137927;-81
2022/04/28 08:44:21;;;;;;;9.00;5.40;;;;;;;15.36;45.82;99241.52;105684;1280;22596;-81
2022/04/28 08:46:54;;;;;;;5.10;4.00;;;;;;;15.45;45.64;99236.84;105809;1277;25497;-81
2022/04/28 08:49:30;;;;;;;7.00;4.80;;;;;;;15.50;44.27;99235.80;105767;1277;137669;-78
2022/04/28 08:52:17;;;;;;;7.70;5.50;;;;;;;15.57;45.56;99236.48;105840;1278;25355;-80
2022/04/28 08:54:46;;;;;;;7.50;5.10;;;;;;;15.69;45.85;99234.08;105959;1277;137766;-83
2022/04/28 08:57:13;;;;;;;6.60;5.10;;;;;;;15.84;44.64;99233.64;105676;1280;22552;-79
2022/04/28 08:59:40;;;;;;;9.10;4.90;;;;;;;15.87;43.82;99232.73;105601;1280;137897;-80
2022/04/28 09:02:13;;;;;;;5.10;4.20;;;;;;;15.81;43.89;99233.21;105809;1279;23692;-80
2022/04/28 09:05:00;;;;;;;5.00;3.90;;;;;;;15.65;43.40;99231.73;105757;1280;25392;-81
2022/04/28 09:07:55;;;;;;;5.60;4.00;;;;;;;15.46;43.94;99236.25;105852;1277;137333;-80
2022/04/28 09:10:42;;;;;;;7.30;3.80;;;;;;;15.40;44.11;99237.89;106320;1277;23626;-80
2022/04/28 09:16:06;;;;;;;7.50;3.90;;;;;;;15.82;42.48;99225.48;106243;1279;24283;-80
2022/04/28 09:18:33;;;;;;;7.00;4.10;;;;;;;16.01;41.41;99225.16;106406;1280;137709;-82
2022/04/28 09:21:13;;;;;;;5.00;3.50;;;;;;;16.17;42.55;99223.90;106244;1280;22557;-80
2022/04/28 09:23:40;;;;;;;4.60;3.50;;;;;;;16.32;41.38;99224.63;106205;1279;138205;-86
2022/04/28 09:26:08;;;;;;;3.30;3.00;;;;;;;16.34;41.05;99225.52;106363;1280;22552;-80
2022/04/28 09:28:35;;;;;;;6.30;3.40;;;;;;;16.46;41.72;99225.39;106383;1277;30313;-80
2022/04/28 09:31:18;;;;;;;4.30;2.70;;;;;;;16.63;41.67;99231.16;106063;1277;137576;-80
2022/04/28 09:33:54;;;;;;;5.00;3.10;;;;;;;16.70;40.06;99227.58;106052;1277;22598;-79
2022/04/28 09:36:35;;;;;;;3.60;3.00;;;;;;;16.73;40.13;99221.38;105967;1277;137486;-79
2022/04/28 09:44:55;;;;;;;7.50;3.00;;;;;;;17.42;38.32;99228.55;105870;1280;22689;-81
2022/04/28 09:47:23;;;;;;;6.60;3.20;;;;;;;17.37;37.64;99225.36;106121;1278;22560;-80
2022/04/28 09:49:57;;;;;;;6.90;3.60;;;;;;;17.14;36.45;99228.52;105622;1280;137752;-80
2022/04/28 09:52:43;;;;;;;6.90;3.20;;;;;;;16.79;37.07;99231.54;105861;1278;25383;-80
2022/04/28 09:55:27;;;;;;;4.70;3.10;;;;;;;16.46;35.78;99230.60;106103;1278;137662;-80
2022/04/28 09:58:23;;;;;;;5.10;4.00;;;;;;;16.19;37.87;99232.95;106513;1277;22576;-78
2022/04/28 10:01:04;;;;;;;6.50;3.20;;;;;;;16.04;39.04;99231.27;106254;1277;137442;-80
2022/04/28 10:03:33;;;;;;;4.30;3.60;;;;;;;15.94;39.41;99234.71;106462;1277;22571;-80
2022/04/28 10:06:17;;;;;;;8.50;4.10;;;;;;;15.93;40.28;99235.70;106468;1278;137649;-81
2022/04/28 10:08:50;;;;;;;6.00;4.20;;;;;;;15.95;39.65;99232.30;106471;1280;23998;-80
2022/04/28 10:11:21;;;;;;;7.70;3.90;;;;;;;15.86;39.99;99231.23;106212;1280;24228;-80
2022/04/28 10:13:50;;;;;;;3.90;2.90;;;;;;;15.74;39.52;99233.58;106076;1281;138273;-81
2022/04/28 10:16:23;;;;;;;7.00;2.90;;;;;;;15.68;36.16;99229.22;106526;1280;23296;-80
2022/04/28 10:18:55;;;;;;;4.60;3.20;;;;;;;15.62;35.85;99229.27;106222;1277;138298;-80
2022/04/28 10:21:30;;;;;;;7.30;3.20;;;;;;;15.59;37.69;99224.13;106746;1277;22580;-81
2022/04/28 10:33:04;;;;;;;4.60;3.30;;;;;;;15.97;39.02;99227.92;106222;1280;22729;-81
2022/04/28 10:35:35;;;;;;;4.90;3.00;;;;;;;15.98;38.86;99229.91;106482;1280;22688;-81
2022/04/28 10:38:05;;;;;;;3.80;2.30;;;;;;;15.95;37.11;99234.61;106420;1277;138089;-81
2022/04/28 10:40:37;;;;;;;6.50;3.20;;;;;;;15.85;34.40;99230.08;106145;1278;32023;-81
2022/04/28 10:43:04;;;;;;;3.20;2.30;;;;;;;15.78;36.68;99228.96;106266;1278;137722;-81
2022/04/28 10:45:40;;;;;;;4.80;3.20;;;;;;;15.78;37.07;99226.66;106177;1278;22627;-81
2022/04/28 10:48:25;;;;;;;5.70;3.40;;;;;;;15.82;38.10;99223.14;106316;1278;138489;-81
2022/04/28 10:51:01;;;;;;;4.00;3.20;;;;;;;15.87;37.75;99228.55;106407;1278;30323;-81
2022/04/28 10:53:28;;;;;;;6.50;3.00;;;;;;;16.09;36.63;99227.04;106443;1278;22634;-81
2022/04/28 10:55:55;;;;;;;6.00;3.00;;;;;;;16.38;37.14;99222.26;106594;1277;137534;-81
2022/04/28 10:58:23;;;;;;;4.20;2.90;;;;;;;16.68;36.60;99223.98;106399;1277;22857;-82
2022/04/28 11:00:58;;;;;;;3.70;2.70;;;;;;;16.82;34.79;99217.14;106648;1278;137486;-81
2022/04/28 11:03:42;;;;;;;7.10;3.00;;;;;;;16.82;35.13;99215.27;106250;1277;24274;-81
2022/04/28 11:06:17;;;;;;;4.00;2.60;;;;;;;17.03;36.10;99216.38;106266;1280;138490;-81
2022/04/28 11:08:49;;;;;;;4.30;2.80;;;;;;;17.29;35.67;99220.72;106364;1280;26347;-80
2022/04/28 11:11:15;;;;;;;4.00;3.10;;;;;;;17.40;34.08;99218.48;106514;1280;22810;-81
2022/04/28 11:13:45;;;;;;;3.70;2.80;;;;;;;17.47;34.25;99217.62;105709;1280;137836;-81
2022/04/28 11:16:13;;;;;;;3.30;2.80;;;;;;;17.60;33.44;99210.59;105772;1281;22570;-81
2022/04/28 11:18:43;;;;;;;3.60;2.70;;;;;;;17.44;33.75;99212.37;105585;1281;137595;-82
2022/04/28 11:21:12;;;;;;;5.00;3.00;;;;;;;17.25;34.19;99214.48;105738;1278;22961;-81
2022/04/28 11:23:43;;;;;;;6.70;3.20;;;;;;;17.11;34.66;99212.27;105967;1277;137570;-80
2022/04/28 11:26:29;;;;;;;5.10;3.30;;;;;;;17.00;35.11;99211.84;105989;1278;23746;-82
2022/04/28 11:29:10;;;;;;;10.90;3.80;;;;;;;16.98;34.22;99207.98;105966;1279;22565;-81
2022/04/28 11:31:49;;;;;;;3.80;3.00;;;;;;;17.20;33.83;99206.70;105892;1281;137878;-81
2022/04/28 11:34:18;;;;;;;4.90;3.00;;;;;;;17.51;35.51;99210.36;105850;1280;22556;-81
2022/04/28 11:36:45;;;;;;;4.00;2.40;;;;;;;17.62;34.42;99212.19;106098;1280;137597;-81
2022/04/28 11:39:12;;;;;;;2.90;2.50;;;;;;;17.51;33.72;99213.71;106332;1280;22576;-81
2022/04/28 11:41:41;;;;;;;3.90;2.50;;;;;;;17.27;32.96;99215.19;106470;1277;137628;-82
2022/04/28 11:44:13;;;;;;;3.80;2.60;;;;;;;17.10;34.59;99218.05;106148;1278;22808;-80
2022/04/28 11:46:51;;;;;;;2.60;2.20;;;;;;;16.97;34.15;99218.86;106339;1278;23389;-81
2022/04/28 11:49:20;;;;;;;2.40;2.20;;;;;;;16.87;34.35;99212.55;106264;1277;140988;-80
2022/04/28 11:51:47;;;;;;;3.40;2.30;;;;;;;16.72;34.02;99211.19;106252;1280;23525;-79
2022/04/28 11:54:26;;;;;;;3.10;2.00;;;;;;;16.64;34.74;99207.45;106085;1281;138474;-82
2022/04/28 11:57:12;;;;;;;3.80;2.60;;;;;;;16.82;35.35;99209.33;106277;1281;24319;-80
2022/04/28 11:59:43;;;;;;;3.70;2.40;;;;;;;17.16;34.70;99204.96;106198;1280;137646;-80
2022/04/28 12:02:23;;;;;;;4.30;2.80;;;;;;;17.48;33.55;99200.81;106179;1277;24082;-81
2022/04/28 12:04:49;;;;;;;3.30;2.30;;;;;;;17.67;32.17;99200.46;106270;1277;24502;-82
2022/04/28 12:07:20;;;;;;;8.00;2.60;;;;;;;17.88;32.76;99196.27;105977;1278;137833;-81
2022/04/28 12:15:12;;;;;;;3.40;2.50;;;;;;;18.47;31.37;99197.88;106142;1277;22649;-82
2022/04/28 12:20:40;;;;;;;3.00;2.10;;;;;;;18.19;31.37;99195.88;106179;1277;25522;-82
2022/04/28 12:23:06;;;;;;;;;;;;;;;17.91;31.19;99199.30;106331;1277;22525;-81
2022/04/28 12:25:37;;;;;;;2.60;2.30;;;;;;;17.64;31.25;99198.04;106144;1277;124072;-81
2022/04/28 12:28:06;;;;;;;5.40;2.20;;;;;;;17.49;33.17;99191.08;106230;1278;22735;-81